sensor_id;sensor_type;location;lat;lon;timestamp;pressure;altitude;pressure_sealevel;temperature;humidity
27729;BME280;15126;42.186;24.340;2023-05-03T00:00:10;99875.63;;;14.60;49.46
27729;BME280;15126;42.186;24.340;2023-05-03T00:02:38;99867.16;;;14.48;49.23
27729;BME280;15126;42.186;24.340;2023-05-03T00:05:05;99867.97;;;14.48;49.51
27729;BME280;15126;42.186;24.340;2023-05-03T00:07:36;99870.66;;;14.52;48.60
27729;BME280;15126;42.186;24.340;2023-05-03T00:10:07;99858.41;;;14.46;48.86
27729;BME280;15126;42.186;24.340;2023-05-03T00:12:34;99868.63;;;14.52;49.00
27729;BME280;15126;42.186;24.340;2023-05-03T00:15:01;99857.84;;;14.51;47.96
27729;BME280;15126;42.186;24.340;2023-05-03T00:17:28;99860.53;;;14.54;48.75
27729;BME280;15126;42.186;24.340;2023-05-03T00:19:55;99860.31;;;14.49;49.38
27729;BME280;15126;42.186;24.340;2023-05-03T00:22:21;99846.97;;;14.53;49.12
27729;BME280;15126;42.186;24.340;2023-05-03T00:24:48;99833.91;;;14.46;49.60
27729;BME280;15126;42.186;24.340;2023-05-03T00:27:17;99827.75;;;14.51;49.57
27729;BME280;15126;42.186;24.340;2023-05-03T00:29:45;99834.16;;;14.52;49.92
27729;BME280;15126;42.186;24.340;2023-05-03T00:32:11;99829.13;;;14.30;50.49
27729;BME280;15126;42.186;24.340;2023-05-03T00:34:38;99848.66;;;14.50;50.44
27729;BME280;15126;42.186;24.340;2023-05-03T00:37:05;99841.69;;;14.55;51.38
27729;BME280;15126;42.186;24.340;2023-05-03T00:39:31;99843.50;;;14.61;50.88
27729;BME280;15126;42.186;24.340;2023-05-03T00:41:58;99838.16;;;14.67;51.77
27729;BME280;15126;42.186;24.340;2023-05-03T00:44:27;99825.66;;;14.68;49.54
27729;BME280;15126;42.186;24.340;2023-05-03T00:46:55;99821.63;;;14.56;49.09
27729;BME280;15126;42.186;24.340;2023-05-03T00:49:23;99812.06;;;14.54;49.99
27729;BME280;15126;42.186;24.340;2023-05-03T00:51:50;99825.72;;;14.52;48.82
27729;BME280;15126;42.186;24.340;2023-05-03T00:54:19;99834.47;;;14.41;49.00
27729;BME280;15126;42.186;24.340;2023-05-03T00:56:47;99836.22;;;14.35;49.16
27729;BME280;15126;42.186;24.340;2023-05-03T00:59:14;99837.38;;;14.38;49.13
27729;BME280;15126;42.186;24.340;2023-05-03T01:01:42;99826.25;;;14.34;49.22
27729;BME280;15126;42.186;24.340;2023-05-03T01:04:09;99833.25;;;14.26;49.41
27729;BME280;15126;42.186;24.340;2023-05-03T01:06:41;99823.50;;;14.30;49.40
27729;BME280;15126;42.186;24.340;2023-05-03T01:09:13;99809.69;;;14.23;49.76
27729;BME280;15126;42.186;24.340;2023-05-03T01:11:47;99814.22;;;14.34;50.22
27729;BME280;15126;42.186;24.340;2023-05-03T01:14:25;99812.66;;;14.32;49.65
27729;BME280;15126;42.186;24.340;2023-05-03T01:17:00;99832.72;;;14.31;49.67
27729;BME280;15126;42.186;24.340;2023-05-03T01:19:33;99829.31;;;14.23;50.33
27729;BME280;15126;42.186;24.340;2023-05-03T01:22:14;99830.13;;;14.24;49.24
27729;BME280;15126;42.186;24.340;2023-05-03T01:24:45;99833.25;;;14.26;49.48
27729;BME280;15126;42.186;24.340;2023-05-03T01:27:14;99838.28;;;14.18;49.92
27729;BME280;15126;42.186;24.340;2023-05-03T01:29:41;99832.31;;;14.16;51.04
27729;BME280;15126;42.186;24.340;2023-05-03T01:32:13;99830.59;;;14.06;49.64
27729;BME280;15126;42.186;24.340;2023-05-03T01:34:46;99805.00;;;14.04;52.16
27729;BME280;15126;42.186;24.340;2023-05-03T01:37:16;99829.88;;;14.02;53.75
27729;BME280;15126;42.186;24.340;2023-05-03T01:39:49;99811.50;;;14.01;54.71
27729;BME280;15126;42.186;24.340;2023-05-03T01:42:19;99825.88;;;14.03;57.38
27729;BME280;15126;42.186;24.340;2023-05-03T01:44:48;99817.09;;;14.01;57.32
27729;BME280;15126;42.186;24.340;2023-05-03T01:47:15;99807.56;;;13.99;54.92
27729;BME280;15126;42.186;24.340;2023-05-03T01:49:42;99790.63;;;14.02;57.96
27729;BME280;15126;42.186;24.340;2023-05-03T01:52:09;99794.16;;;13.90;56.71
27729;BME280;15126;42.186;24.340;2023-05-03T01:54:36;99803.81;;;13.89;55.66
27729;BME280;15126;42.186;24.340;2023-05-03T01:57:03;99788.16;;;13.76;55.60
27729;BME280;15126;42.186;24.340;2023-05-03T01:59:31;99790.88;;;13.79;57.33
27729;BME280;15126;42.186;24.340;2023-05-03T02:01:58;99789.81;;;13.73;55.60
27729;BME280;15126;42.186;24.340;2023-05-03T02:04:24;99787.00;;;13.73;57.41
27729;BME280;15126;42.186;24.340;2023-05-03T02:06:51;99798.75;;;13.68;55.62
27729;BME280;15126;42.186;24.340;2023-05-03T02:09:18;99790.53;;;13.61;57.90
27729;BME280;15126;42.186;24.340;2023-05-03T02:11:45;99793.25;;;13.64;58.15
27729;BME280;15126;42.186;24.340;2023-05-03T02:14:12;99791.69;;;13.63;58.16
27729;BME280;15126;42.186;24.340;2023-05-03T02:16:40;99791.75;;;13.60;57.06
27729;BME280;15126;42.186;24.340;2023-05-03T02:19:07;99795.78;;;13.59;57.18
27729;BME280;15126;42.186;24.340;2023-05-03T02:21:36;99784.41;;;13.50;57.14
27729;BME280;15126;42.186;24.340;2023-05-03T02:24:03;99799.84;;;13.58;58.54
27729;BME280;15126;42.186;24.340;2023-05-03T02:26:30;99798.00;;;13.35;58.10
27729;BME280;15126;42.186;24.340;2023-05-03T02:28:57;99780.31;;;13.38;57.90
27729;BME280;15126;42.186;24.340;2023-05-03T02:31:24;99796.25;;;13.41;57.73
27729;BME280;15126;42.186;24.340;2023-05-03T02:33:53;99799.66;;;13.33;57.32
27729;BME280;15126;42.186;24.340;2023-05-03T02:36:20;99785.56;;;13.36;58.61
27729;BME280;15126;42.186;24.340;2023-05-03T02:38:47;99791.59;;;13.35;58.00
27729;BME280;15126;42.186;24.340;2023-05-03T02:41:13;99789.84;;;13.41;57.39
27729;BME280;15126;42.186;24.340;2023-05-03T02:43:40;99793.91;;;13.40;57.64
27729;BME280;15126;42.186;24.340;2023-05-03T02:46:07;99782.84;;;13.33;56.49
27729;BME280;15126;42.186;24.340;2023-05-03T02:48:34;99787.75;;;13.29;57.37
27729;BME280;15126;42.186;24.340;2023-05-03T02:51:03;99794.06;;;13.33;58.70
27729;BME280;15126;42.186;24.340;2023-05-03T02:53:29;99794.84;;;13.33;58.93
27729;BME280;15126;42.186;24.340;2023-05-03T02:55:56;99800.19;;;13.28;58.36
27729;BME280;15126;42.186;24.340;2023-05-03T02:58:23;99796.66;;;13.24;58.94
27729;BME280;15126;42.186;24.340;2023-05-03T03:00:50;99797.56;;;13.21;58.63
27729;BME280;15126;42.186;24.340;2023-05-03T03:03:17;99797.38;;;13.11;58.97
27729;BME280;15126;42.186;24.340;2023-05-03T03:05:44;99808.56;;;13.11;59.50
27729;BME280;15126;42.186;24.340;2023-05-03T03:08:12;99812.06;;;13.16;59.85
27729;BME280;15126;42.186;24.340;2023-05-03T03:10:39;99816.19;;;13.11;58.88
27729;BME280;15126;42.186;24.340;2023-05-03T03:13:05;99822.22;;;13.09;60.53
27729;BME280;15126;42.186;24.340;2023-05-03T03:15:32;99827.72;;;13.13;61.02
27729;BME280;15126;42.186;24.340;2023-05-03T03:17:59;99820.25;;;13.06;59.94
27729;BME280;15126;42.186;24.340;2023-05-03T03:20:26;99817.09;;;13.04;60.88
27729;BME280;15126;42.186;24.340;2023-05-03T03:22:53;99826.25;;;13.08;60.26
27729;BME280;15126;42.186;24.340;2023-05-03T03:25:22;99828.28;;;13.04;60.37
27729;BME280;15126;42.186;24.340;2023-05-03T03:27:49;99836.84;;;12.97;60.43
27729;BME280;15126;42.186;24.340;2023-05-03T03:30:15;99838.19;;;12.93;60.49
27729;BME280;15126;42.186;24.340;2023-05-03T03:32:42;99842.97;;;12.92;61.14
27729;BME280;15126;42.186;24.340;2023-05-03T03:35:09;99849.50;;;12.86;60.81
27729;BME280;15126;42.186;24.340;2023-05-03T03:37:37;99854.97;;;12.93;61.13
27729;BME280;15126;42.186;24.340;2023-05-03T03:40:05;99859.28;;;12.78;62.21
27729;BME280;15126;42.186;24.340;2023-05-03T03:42:34;99863.66;;;12.79;62.21
27729;BME280;15126;42.186;24.340;2023-05-03T03:45:01;99858.53;;;12.77;61.66
27729;BME280;15126;42.186;24.340;2023-05-03T03:47:29;99866.75;;;12.84;62.26
27729;BME280;15126;42.186;24.340;2023-05-03T03:49:55;99878.38;;;12.83;61.48
27729;BME280;15126;42.186;24.340;2023-05-03T03:52:22;99880.41;;;12.82;62.08
27729;BME280;15126;42.186;24.340;2023-05-03T03:54:49;99879.16;;;12.83;62.38
27729;BME280;15126;42.186;24.340;2023-05-03T03:57:16;99892.75;;;12.85;62.43
27729;BME280;15126;42.186;24.340;2023-05-03T03:59:44;99892.97;;;12.74;62.65
27729;BME280;15126;42.186;24.340;2023-05-03T04:02:11;99905.16;;;12.84;63.12
27729;BME280;15126;42.186;24.340;2023-05-03T04:04:38;99897.03;;;12.70;63.93
27729;BME280;15126;42.186;24.340;2023-05-03T04:07:05;99911.25;;;12.79;63.30
27729;BME280;15126;42.186;24.340;2023-05-03T04:09:32;99918.44;;;12.80;64.36
27729;BME280;15126;42.186;24.340;2023-05-03T04:11:58;99926.91;;;12.76;63.97
27729;BME280;15126;42.186;24.340;2023-05-03T04:14:27;99933.66;;;12.79;63.62
27729;BME280;15126;42.186;24.340;2023-05-03T04:16:55;99939.09;;;12.86;63.88
27729;BME280;15126;42.186;24.340;2023-05-03T04:19:23;99937.94;;;12.83;63.33
27729;BME280;15126;42.186;24.340;2023-05-03T04:21:51;99951.81;;;12.90;64.13
27729;BME280;15126;42.186;24.340;2023-05-03T04:24:17;99931.06;;;12.68;63.88
27729;BME280;15126;42.186;24.340;2023-05-03T04:26:44;99967.94;;;12.83;64.40
27729;BME280;15126;42.186;24.340;2023-05-03T04:29:11;99962.78;;;12.81;64.95
27729;BME280;15126;42.186;24.340;2023-05-03T04:31:38;99976.72;;;12.85;65.59
27729;BME280;15126;42.186;24.340;2023-05-03T04:34:07;99982.38;;;12.81;67.38
27729;BME280;15126;42.186;24.340;2023-05-03T04:36:35;99987.28;;;12.77;68.24
27729;BME280;15126;42.186;24.340;2023-05-03T04:39:02;99991.28;;;12.76;66.34
27729;BME280;15126;42.186;24.340;2023-05-03T04:41:30;99995.44;;;12.68;66.88
27729;BME280;15126;42.186;24.340;2023-05-03T04:43:57;99991.78;;;12.71;66.85
27729;BME280;15126;42.186;24.340;2023-05-03T04:46:24;99992.63;;;12.68;68.65
27729;BME280;15126;42.186;24.340;2023-05-03T04:48:51;99989.09;;;12.64;69.88
27729;BME280;15126;42.186;24.340;2023-05-03T04:51:19;99980.00;;;12.60;69.23
27729;BME280;15126;42.186;24.340;2023-05-03T04:53:46;99991.59;;;12.59;71.71
27729;BME280;15126;42.186;24.340;2023-05-03T04:56:13;99980.53;;;12.51;71.44
27729;BME280;15126;42.186;24.340;2023-05-03T04:58:39;99984.72;;;12.63;70.67
27729;BME280;15126;42.186;24.340;2023-05-03T05:01:07;99984.72;;;12.63;72.34
27729;BME280;15126;42.186;24.340;2023-05-03T05:03:34;99985.22;;;12.58;71.80
27729;BME280;15126;42.186;24.340;2023-05-03T05:06:01;99980.47;;;12.55;69.75
27729;BME280;15126;42.186;24.340;2023-05-03T05:08:29;99985.00;;;12.49;70.26
27729;BME280;15126;42.186;24.340;2023-05-03T05:10:56;99989.38;;;12.50;70.67
27729;BME280;15126;42.186;24.340;2023-05-03T05:13:22;99989.47;;;12.43;71.35
27729;BME280;15126;42.186;24.340;2023-05-03T05:15:49;99980.69;;;12.44;71.30
27729;BME280;15126;42.186;24.340;2023-05-03T05:18:16;99981.59;;;12.38;70.54
27729;BME280;15126;42.186;24.340;2023-05-03T05:20:43;99994.28;;;12.42;71.23
27729;BME280;15126;42.186;24.340;2023-05-03T05:23:10;99994.28;;;12.42;72.63
27729;BME280;15126;42.186;24.340;2023-05-03T05:25:38;99976.78;;;12.15;73.15
27729;BME280;15126;42.186;24.340;2023-05-03T05:28:05;100012.34;;;12.38;72.14
27729;BME280;15126;42.186;24.340;2023-05-03T05:30:32;100014.00;;;12.35;73.52
27729;BME280;15126;42.186;24.340;2023-05-03T05:32:59;100014.41;;;12.34;74.38
27729;BME280;15126;42.186;24.340;2023-05-03T05:35:26;100017.22;;;12.34;73.52
27729;BME280;15126;42.186;24.340;2023-05-03T05:37:53;100009.69;;;12.31;74.14
27729;BME280;15126;42.186;24.340;2023-05-03T05:40:20;100012.91;;;12.29;74.17
27729;BME280;15126;42.186;24.340;2023-05-03T05:42:48;100009.91;;;12.17;73.89
27729;BME280;15126;42.186;24.340;2023-05-03T05:45:15;100004.19;;;12.24;74.04
27729;BME280;15126;42.186;24.340;2023-05-03T05:47:42;100003.88;;;12.18;74.63
27729;BME280;15126;42.186;24.340;2023-05-03T05:50:09;99996.84;;;12.10;76.72
27729;BME280;15126;42.186;24.340;2023-05-03T05:52:36;99988.72;;;12.19;75.74
27729;BME280;15126;42.186;24.340;2023-05-03T05:55:04;99984.00;;;12.13;78.59
27729;BME280;15126;42.186;24.340;2023-05-03T05:57:32;99985.25;;;12.12;79.17
27729;BME280;15126;42.186;24.340;2023-05-03T06:00:00;99992.28;;;12.20;78.41
27729;BME280;15126;42.186;24.340;2023-05-03T06:02:30;99995.31;;;12.06;79.50
27729;BME280;15126;42.186;24.340;2023-05-03T06:04:57;99997.38;;;12.02;81.70
27729;BME280;15126;42.186;24.340;2023-05-03T06:07:24;100009.31;;;12.06;79.88
27729;BME280;15126;42.186;24.340;2023-05-03T06:09:51;100002.97;;;12.02;80.32
27729;BME280;15126;42.186;24.340;2023-05-03T06:12:18;100006.91;;;12.04;80.02
27729;BME280;15126;42.186;24.340;2023-05-03T06:14:44;100002.75;;;12.16;79.69
27729;BME280;15126;42.186;24.340;2023-05-03T06:17:13;100011.88;;;12.20;81.52
27729;BME280;15126;42.186;24.340;2023-05-03T06:19:40;100019.16;;;12.37;81.09
27729;BME280;15126;42.186;24.340;2023-05-03T06:22:07;100020.19;;;12.23;78.38
27729;BME280;15126;42.186;24.340;2023-05-03T06:24:33;100008.75;;;12.37;80.01
27729;BME280;15126;42.186;24.340;2023-05-03T06:27:00;100004.25;;;12.43;80.95
27729;BME280;15126;42.186;24.340;2023-05-03T06:29:30;99998.19;;;12.48;79.01
27729;BME280;15126;42.186;24.340;2023-05-03T06:31:57;99997.19;;;12.59;81.49
27729;BME280;15126;42.186;24.340;2023-05-03T06:34:25;99997.97;;;12.59;77.56
27729;BME280;15126;42.186;24.340;2023-05-03T06:36:52;99999.22;;;12.78;79.14
27729;BME280;15126;42.186;24.340;2023-05-03T06:39:19;99999.53;;;12.83;79.71
27729;BME280;15126;42.186;24.340;2023-05-03T06:41:46;100007.41;;;12.88;79.45
27729;BME280;15126;42.186;24.340;2023-05-03T06:44:12;100006.84;;;12.97;76.23
27729;BME280;15126;42.186;24.340;2023-05-03T06:46:39;100005.03;;;13.10;74.49
27729;BME280;15126;42.186;24.340;2023-05-03T06:49:06;100007.91;;;13.26;77.27
27729;BME280;15126;42.186;24.340;2023-05-03T06:51:35;100006.25;;;13.29;77.27
27729;BME280;15126;42.186;24.340;2023-05-03T06:54:02;99996.97;;;13.32;74.11
27729;BME280;15126;42.186;24.340;2023-05-03T06:56:33;100002.09;;;13.37;78.84
27729;BME280;15126;42.186;24.340;2023-05-03T06:59:00;100005.53;;;13.44;76.28
27729;BME280;15126;42.186;24.340;2023-05-03T07:01:27;100005.22;;;13.58;74.58
27729;BME280;15126;42.186;24.340;2023-05-03T07:03:54;99997.88;;;13.81;71.49
27729;BME280;15126;42.186;24.340;2023-05-03T07:06:21;100000.72;;;13.97;71.56
27729;BME280;15126;42.186;24.340;2023-05-03T07:08:50;99993.09;;;14.13;73.65
27729;BME280;15126;42.186;24.340;2023-05-03T07:11:17;99989.59;;;14.25;71.86
27729;BME280;15126;42.186;24.340;2023-05-03T07:13:46;99987.13;;;14.44;70.58
27729;BME280;15126;42.186;24.340;2023-05-03T07:16:13;99983.38;;;14.50;71.02
27729;BME280;15126;42.186;24.340;2023-05-03T07:18:40;99975.88;;;14.60;72.12
27729;BME280;15126;42.186;24.340;2023-05-03T07:21:07;99960.69;;;14.73;74.92
27729;BME280;15126;42.186;24.340;2023-05-03T07:23:33;99955.00;;;14.89;73.10
27729;BME280;15126;42.186;24.340;2023-05-03T07:26:01;99959.44;;;15.03;69.25
27729;BME280;15126;42.186;24.340;2023-05-03T07:28:28;99962.31;;;15.28;70.27
27729;BME280;15126;42.186;24.340;2023-05-03T07:30:55;99967.78;;;15.48;68.97
27729;BME280;15126;42.186;24.340;2023-05-03T07:33:22;99966.09;;;15.51;63.45
27729;BME280;15126;42.186;24.340;2023-05-03T07:35:49;99966.09;;;15.51;64.62
27729;BME280;15126;42.186;24.340;2023-05-03T07:38:15;99952.75;;;15.38;65.91
27729;BME280;15126;42.186;24.340;2023-05-03T07:40:42;99963.66;;;15.24;62.54
27729;BME280;15126;42.186;24.340;2023-05-03T07:43:11;99970.63;;;14.90;67.19
27729;BME280;15126;42.186;24.340;2023-05-03T07:45:38;99961.81;;;15.05;73.35
27729;BME280;15126;42.186;24.340;2023-05-03T07:48:05;99963.53;;;15.27;64.34
27729;BME280;15126;42.186;24.340;2023-05-03T07:50:32;99962.31;;;15.28;64.97
27729;BME280;15126;42.186;24.340;2023-05-03T07:52:58;99962.16;;;15.61;64.53
27729;BME280;15126;42.186;24.340;2023-05-03T07:55:25;99954.50;;;15.74;65.93
27729;BME280;15126;42.186;24.340;2023-05-03T07:57:53;99942.78;;;15.88;63.90
27729;BME280;15126;42.186;24.340;2023-05-03T08:00:25;99951.22;;;16.13;69.87
27729;BME280;15126;42.186;24.340;2023-05-03T08:02:52;99958.97;;;16.22;63.53
27729;BME280;15126;42.186;24.340;2023-05-03T08:05:19;99948.34;;;15.79;62.21
27729;BME280;15126;42.186;24.340;2023-05-03T08:07:46;99925.78;;;16.17;61.69
27729;BME280;15126;42.186;24.340;2023-05-03T08:10:12;99921.06;;;16.01;60.73
27729;BME280;15126;42.186;24.340;2023-05-03T08:12:39;99906.72;;;16.21;61.52
27729;BME280;15126;42.186;24.340;2023-05-03T08:15:07;99916.13;;;16.39;61.52
27729;BME280;15126;42.186;24.340;2023-05-03T08:17:40;99951.03;;;16.42;60.88
27729;BME280;15126;42.186;24.340;2023-05-03T08:20:08;99965.25;;;16.26;61.19
27729;BME280;15126;42.186;24.340;2023-05-03T08:22:35;99946.88;;;16.46;61.43
27729;BME280;15126;42.186;24.340;2023-05-03T08:25:03;99937.47;;;16.62;61.67
27729;BME280;15126;42.186;24.340;2023-05-03T08:27:30;99915.28;;;16.64;57.86
27729;BME280;15126;42.186;24.340;2023-05-03T08:29:57;99924.00;;;16.79;59.59
27729;BME280;15126;42.186;24.340;2023-05-03T08:32:25;99929.38;;;16.86;60.61
27729;BME280;15126;42.186;24.340;2023-05-03T08:34:54;99933.69;;;16.99;64.55
27729;BME280;15126;42.186;24.340;2023-05-03T08:37:21;99925.63;;;17.10;56.78
27729;BME280;15126;42.186;24.340;2023-05-03T08:39:47;99915.97;;;17.20;59.08
27729;BME280;15126;42.186;24.340;2023-05-03T08:42:14;99913.88;;;17.34;56.76
27729;BME280;15126;42.186;24.340;2023-05-03T08:44:44;99915.59;;;17.31;55.60
27729;BME280;15126;42.186;24.340;2023-05-03T08:47:13;99925.66;;;17.41;58.17
27729;BME280;15126;42.186;24.340;2023-05-03T08:49:41;99920.38;;;17.21;55.56
27729;BME280;15126;42.186;24.340;2023-05-03T08:52:10;99925.91;;;17.34;55.47
27729;BME280;15126;42.186;24.340;2023-05-03T08:54:37;99914.59;;;17.25;53.40
27729;BME280;15126;42.186;24.340;2023-05-03T08:57:09;99914.69;;;16.69;53.67
27729;BME280;15126;42.186;24.340;2023-05-03T08:59:45;99907.88;;;16.79;55.42
27729;BME280;15126;42.186;24.340;2023-05-03T09:02:13;99903.00;;;16.58;54.67
27729;BME280;15126;42.186;24.340;2023-05-03T09:04:40;99901.47;;;16.57;55.28
27729;BME280;15126;42.186;24.340;2023-05-03T09:07:07;99907.13;;;16.66;54.54
27729;BME280;15126;42.186;24.340;2023-05-03T09:09:36;99911.34;;;16.61;55.99
27729;BME280;15126;42.186;24.340;2023-05-03T09:12:03;99920.31;;;16.91;57.66
27729;BME280;15126;42.186;24.340;2023-05-03T09:14:40;99912.00;;;17.09;58.32
27729;BME280;15126;42.186;24.340;2023-05-03T09:17:13;99906.03;;;17.07;54.74
27729;BME280;15126;42.186;24.340;2023-05-03T09:19:51;99894.56;;;17.32;57.52
27729;BME280;15126;42.186;24.340;2023-05-03T09:22:19;99892.84;;;17.56;54.77
27729;BME280;15126;42.186;24.340;2023-05-03T09:24:54;99886.91;;;17.63;52.78
27729;BME280;15126;42.186;24.340;2023-05-03T09:27:22;99881.31;;;17.81;56.08
27729;BME280;15126;42.186;24.340;2023-05-03T09:29:50;99866.31;;;17.94;56.22
27729;BME280;15126;42.186;24.340;2023-05-03T09:32:18;99866.78;;;18.10;54.64
27729;BME280;15126;42.186;24.340;2023-05-03T09:34:46;99874.84;;;18.39;51.21
27729;BME280;15126;42.186;24.340;2023-05-03T09:37:12;99877.81;;;18.44;53.30
27729;BME280;15126;42.186;24.340;2023-05-03T09:39:40;99873.91;;;18.51;53.25
27729;BME280;15126;42.186;24.340;2023-05-03T09:42:13;99877.97;;;18.59;50.60
27729;BME280;15126;42.186;24.340;2023-05-03T09:44:42;99876.28;;;18.53;50.07
27729;BME280;15126;42.186;24.340;2023-05-03T09:47:10;99876.69;;;18.15;50.70
27729;BME280;15126;42.186;24.340;2023-05-03T09:49:37;99872.47;;;18.37;51.37
27729;BME280;15126;42.186;24.340;2023-05-03T09:52:05;99881.75;;;18.29;53.21
27729;BME280;15126;42.186;24.340;2023-05-03T09:54:33;99882.66;;;18.17;50.63
27729;BME280;15126;42.186;24.340;2023-05-03T09:57:02;99886.72;;;18.16;53.47
27729;BME280;15126;42.186;24.340;2023-05-03T09:59:31;99882.44;;;17.84;51.64
27729;BME280;15126;42.186;24.340;2023-05-03T10:02:00;99855.59;;;17.70;52.93
27729;BME280;15126;42.186;24.340;2023-05-03T10:04:32;99870.97;;;17.78;52.64
27729;BME280;15126;42.186;24.340;2023-05-03T10:07:03;99876.63;;;17.48;53.37
27729;BME280;15126;42.186;24.340;2023-05-03T10:09:35;99859.34;;;17.37;52.73
27729;BME280;15126;42.186;24.340;2023-05-03T10:12:07;99866.13;;;17.48;55.00
27729;BME280;15126;42.186;24.340;2023-05-03T10:14:39;99854.63;;;17.55;56.20
27729;BME280;15126;42.186;24.340;2023-05-03T10:17:08;99862.63;;;17.35;53.96
27729;BME280;15126;42.186;24.340;2023-05-03T10:19:41;99850.38;;;17.29;53.14
27729;BME280;15126;42.186;24.340;2023-05-03T10:22:12;99832.91;;;17.03;55.19
27729;BME280;15126;42.186;24.340;2023-05-03T10:25:06;99847.50;;;17.11;54.71
27729;BME280;15126;42.186;24.340;2023-05-03T10:27:40;99845.47;;;17.11;57.60
27729;BME280;15126;42.186;24.340;2023-05-03T10:30:26;99844.59;;;16.93;57.44
27729;BME280;15126;42.186;24.340;2023-05-03T10:32:53;99850.84;;;16.97;60.47
27729;BME280;15126;42.186;24.340;2023-05-03T10:35:20;99839.97;;;17.08;60.83
27729;BME280;15126;42.186;24.340;2023-05-03T10:37:51;99845.25;;;16.75;59.29
27729;BME280;15126;42.186;24.340;2023-05-03T10:40:18;99833.72;;;16.82;62.80
27729;BME280;15126;42.186;24.340;2023-05-03T10:42:49;99839.81;;;16.81;62.96
27729;BME280;15126;42.186;24.340;2023-05-03T10:45:23;99857.19;;;16.79;63.06
27729;BME280;15126;42.186;24.340;2023-05-03T10:48:14;99861.09;;;16.82;64.87
27729;BME280;15126;42.186;24.340;2023-05-03T10:50:45;99859.25;;;16.66;63.25
27729;BME280;15126;42.186;24.340;2023-05-03T10:53:35;99854.94;;;16.74;58.45
27729;BME280;15126;42.186;24.340;2023-05-03T10:56:03;99837.66;;;16.85;63.60
27729;BME280;15126;42.186;24.340;2023-05-03T10:58:35;99838.53;;;17.03;62.27
27729;BME280;15126;42.186;24.340;2023-05-03T11:01:04;99832.84;;;17.25;62.68
27729;BME280;15126;42.186;24.340;2023-05-03T11:03:42;99839.72;;;17.64;60.10
27729;BME280;15126;42.186;24.340;2023-05-03T11:06:29;99833.59;;;17.56;58.86
27729;BME280;15126;42.186;24.340;2023-05-03T11:08:56;99846.84;;;17.87;58.26
27729;BME280;15126;42.186;24.340;2023-05-03T11:11:23;99840.75;;;17.97;57.00
27729;BME280;15126;42.186;24.340;2023-05-03T11:13:51;99832.78;;;18.14;53.49
27729;BME280;15126;42.186;24.340;2023-05-03T11:16:19;99814.25;;;18.22;54.96
27729;BME280;15126;42.186;24.340;2023-05-03T11:18:46;99805.16;;;18.36;54.67
27729;BME280;15126;42.186;24.340;2023-05-03T11:21:14;99810.31;;;18.47;55.30
27729;BME280;15126;42.186;24.340;2023-05-03T11:23:42;99821.97;;;18.67;55.63
27729;BME280;15126;42.186;24.340;2023-05-03T11:26:10;99827.13;;;18.59;56.26
27729;BME280;15126;42.186;24.340;2023-05-03T11:28:37;99822.88;;;18.73;53.40
27729;BME280;15126;42.186;24.340;2023-05-03T11:31:04;99815.81;;;18.59;52.97
27729;BME280;15126;42.186;24.340;2023-05-03T11:33:33;99825.09;;;18.60;52.71
27729;BME280;15126;42.186;24.340;2023-05-03T11:36:02;99824.00;;;18.57;52.71
27729;BME280;15126;42.186;24.340;2023-05-03T11:38:30;99829.16;;;18.40;53.51
27729;BME280;15126;42.186;24.340;2023-05-03T11:40:57;99815.22;;;18.28;53.94
27729;BME280;15126;42.186;24.340;2023-05-03T11:43:24;99814.91;;;18.26;53.49
27729;BME280;15126;42.186;24.340;2023-05-03T11:45:55;99823.69;;;18.10;53.97
27729;BME280;15126;42.186;24.340;2023-05-03T11:48:23;99807.19;;;17.99;54.83
27729;BME280;15126;42.186;24.340;2023-05-03T11:50:54;99811.91;;;18.02;56.69
27729;BME280;15126;42.186;24.340;2023-05-03T11:53:22;99814.88;;;17.99;56.70
27729;BME280;15126;42.186;24.340;2023-05-03T11:55:51;99809.38;;;17.86;57.57
27729;BME280;15126;42.186;24.340;2023-05-03T11:58:21;99800.41;;;17.60;56.76
27729;BME280;15126;42.186;24.340;2023-05-03T12:00:50;99814.28;;;17.46;59.21
27729;BME280;15126;42.186;24.340;2023-05-03T12:03:18;99804.75;;;17.52;60.00
27729;BME280;15126;42.186;24.340;2023-05-03T12:05:45;99805.19;;;17.51;60.09
27729;BME280;15126;42.186;24.340;2023-05-03T12:08:13;99794.06;;;17.47;61.75
27729;BME280;15126;42.186;24.340;2023-05-03T12:10:42;99787.78;;;17.43;61.21
27729;BME280;15126;42.186;24.340;2023-05-03T12:13:09;99798.72;;;17.32;63.06
27729;BME280;15126;42.186;24.340;2023-05-03T12:15:38;99804.84;;;17.40;63.26
27729;BME280;15126;42.186;24.340;2023-05-03T12:18:06;99788.03;;;17.27;64.71
27729;BME280;15126;42.186;24.340;2023-05-03T12:20:34;99779.63;;;17.36;63.85
27729;BME280;15126;42.186;24.340;2023-05-03T12:23:03;99765.72;;;17.42;64.90
27729;BME280;15126;42.186;24.340;2023-05-03T12:25:34;99759.56;;;17.34;61.32
27729;BME280;15126;42.186;24.340;2023-05-03T12:28:02;99749.06;;;17.25;60.79
27729;BME280;15126;42.186;24.340;2023-05-03T12:30:30;99751.69;;;17.20;63.58
27729;BME280;15126;42.186;24.340;2023-05-03T12:32:57;99751.00;;;16.98;65.90
27729;BME280;15126;42.186;24.340;2023-05-03T12:35:24;99756.47;;;17.01;69.42
27729;BME280;15126;42.186;24.340;2023-05-03T12:37:51;99743.97;;;17.02;68.92
27729;BME280;15126;42.186;24.340;2023-05-03T12:40:18;99726.25;;;17.02;67.76
27729;BME280;15126;42.186;24.340;2023-05-03T12:42:50;99741.97;;;17.12;69.28
27729;BME280;15126;42.186;24.340;2023-05-03T12:45:17;99731.78;;;17.14;68.86
27729;BME280;15126;42.186;24.340;2023-05-03T12:47:43;99713.75;;;17.03;69.92
27729;BME280;15126;42.186;24.340;2023-05-03T12:50:10;99719.06;;;17.01;69.19
27729;BME280;15126;42.186;24.340;2023-05-03T12:52:37;99721.16;;;16.79;69.73
27729;BME280;15126;42.186;24.340;2023-05-03T12:55:05;99725.50;;;16.71;69.16